sensor_id;sensor_type;location;lat;lon;timestamp;temperature;humidity
65046;DHT22;54657;52.022;5.534;2024-03-07T00:02:10;6.80;90.50
65046;DHT22;54657;52.022;5.534;2024-03-07T00:04:36;6.70;90.40
65046;DHT22;54657;52.022;5.534;2024-03-07T00:07:03;6.70;90.40
65046;DHT22;54657;52.022;5.534;2024-03-07T00:09:33;6.80;90.40
65046;DHT22;54657;52.022;5.534;2024-03-07T00:12:00;6.80;90.30
65046;DHT22;54657;52.022;5.534;2024-03-07T00:14:25;6.70;90.20
65046;DHT22;54657;52.022;5.534;2024-03-07T00:16:56;6.60;90.20
65046;DHT22;54657;52.022;5.534;2024-03-07T00:19:22;6.60;90.30
65046;DHT22;54657;52.022;5.534;2024-03-07T00:21:56;6.50;90.30
65046;DHT22;54657;52.022;5.534;2024-03-07T00:24:22;6.50;90.30
65046;DHT22;54657;52.022;5.534;2024-03-07T00:26:48;6.50;90.30
65046;DHT22;54657;52.022;5.534;2024-03-07T00:29:18;6.40;90.30
65046;DHT22;54657;52.022;5.534;2024-03-07T00:31:47;6.40;90.30
65046;DHT22;54657;52.022;5.534;2024-03-07T00:34:13;6.40;90.20
65046;DHT22;54657;52.022;5.534;2024-03-07T00:36:44;6.40;90.20
65046;DHT22;54657;52.022;5.534;2024-03-07T00:39:10;6.40;90.10
65046;DHT22;54657;52.022;5.534;2024-03-07T00:41:40;6.30;90.10
65046;DHT22;54657;52.022;5.534;2024-03-07T00:44:09;6.40;90.10
65046;DHT22;54657;52.022;5.534;2024-03-07T00:46:38;6.40;90.00
65046;DHT22;54657;52.022;5.534;2024-03-07T00:49:04;6.40;90.00
65046;DHT22;54657;52.022;5.534;2024-03-07T00:51:30;6.30;89.90
65046;DHT22;54657;52.022;5.534;2024-03-07T00:53:56;6.40;89.80
65046;DHT22;54657;52.022;5.534;2024-03-07T00:56:22;6.40;89.60
65046;DHT22;54657;52.022;5.534;2024-03-07T00:58:53;6.30;89.50
65046;DHT22;54657;52.022;5.534;2024-03-07T01:01:19;6.30;89.60
65046;DHT22;54657;52.022;5.534;2024-03-07T01:03:45;6.20;89.60
65046;DHT22;54657;52.022;5.534;2024-03-07T01:06:10;6.20;89.50
65046;DHT22;54657;52.022;5.534;2024-03-07T01:08:37;6.20;89.60
65046;DHT22;54657;52.022;5.534;2024-03-07T01:11:05;6.10;89.70
65046;DHT22;54657;52.022;5.534;2024-03-07T01:13:41;6.10;89.60
65046;DHT22;54657;52.022;5.534;2024-03-07T01:16:07;6.10;89.50
65046;DHT22;54657;52.022;5.534;2024-03-07T01:18:33;6.10;89.50
65046;DHT22;54657;52.022;5.534;2024-03-07T01:21:02;6.20;89.30
65046;DHT22;54657;52.022;5.534;2024-03-07T01:23:28;6.10;89.30
65046;DHT22;54657;52.022;5.534;2024-03-07T01:25:58;6.10;89.20
65046;DHT22;54657;52.022;5.534;2024-03-07T01:28:24;6.00;89.30
65046;DHT22;54657;52.022;5.534;2024-03-07T01:30:50;6.00;89.30
65046;DHT22;54657;52.022;5.534;2024-03-07T01:33:16;6.00;89.30
65046;DHT22;54657;52.022;5.534;2024-03-07T01:35:42;5.90;89.40
65046;DHT22;54657;52.022;5.534;2024-03-07T01:38:08;5.80;89.60
65046;DHT22;54657;52.022;5.534;2024-03-07T01:40:36;5.80;89.70
65046;DHT22;54657;52.022;5.534;2024-03-07T01:43:02;5.60;90.00
65046;DHT22;54657;52.022;5.534;2024-03-07T01:45:28;5.50;90.20
65046;DHT22;54657;52.022;5.534;2024-03-07T01:47:54;5.50;90.20
65046;DHT22;54657;52.022;5.534;2024-03-07T01:50:21;5.60;90.10
65046;DHT22;54657;52.022;5.534;2024-03-07T01:52:47;5.60;90.10
65046;DHT22;54657;52.022;5.534;2024-03-07T01:55:15;5.60;90.10
65046;DHT22;54657;52.022;5.534;2024-03-07T01:57:41;5.60;90.10
65046;DHT22;54657;52.022;5.534;2024-03-07T02:00:08;5.60;90.10
65046;DHT22;54657;52.022;5.534;2024-03-07T02:02:34;5.50;90.20
65046;DHT22;54657;52.022;5.534;2024-03-07T02:05:00;5.40;90.30
65046;DHT22;54657;52.022;5.534;2024-03-07T02:07:25;5.40;90.40
65046;DHT22;54657;52.022;5.534;2024-03-07T02:10:02;5.50;90.30
65046;DHT22;54657;52.022;5.534;2024-03-07T02:12:29;5.60;90.20
65046;DHT22;54657;52.022;5.534;2024-03-07T02:14:56;5.70;90.10
65046;DHT22;54657;52.022;5.534;2024-03-07T02:17:26;5.70;90.00
65046;DHT22;54657;52.022;5.534;2024-03-07T02:19:51;5.70;90.00
65046;DHT22;54657;52.022;5.534;2024-03-07T02:22:20;5.70;89.80
65046;DHT22;54657;52.022;5.534;2024-03-07T02:24:46;5.70;89.90
65046;DHT22;54657;52.022;5.534;2024-03-07T02:27:12;5.60;90.00
65046;DHT22;54657;52.022;5.534;2024-03-07T02:29:40;5.60;90.00
65046;DHT22;54657;52.022;5.534;2024-03-07T02:32:06;5.50;90.00
65046;DHT22;54657;52.022;5.534;2024-03-07T02:34:31;5.50;90.10
65046;DHT22;54657;52.022;5.534;2024-03-07T02:36:57;5.50;90.10
65046;DHT22;54657;52.022;5.534;2024-03-07T02:39:22;5.50;90.00
65046;DHT22;54657;52.022;5.534;2024-03-07T02:41:50;5.50;90.00
65046;DHT22;54657;52.022;5.534;2024-03-07T02:44:16;5.50;90.00
65046;DHT22;54657;52.022;5.534;2024-03-07T02:46:41;5.50;89.90
65046;DHT22;54657;52.022;5.534;2024-03-07T02:49:07;5.40;89.80
65046;DHT22;54657;52.022;5.534;2024-03-07T02:51:32;5.50;89.90
65046;DHT22;54657;52.022;5.534;2024-03-07T02:53:58;5.50;89.70
65046;DHT22;54657;52.022;5.534;2024-03-07T02:56:24;5.50;89.70
65046;DHT22;54657;52.022;5.534;2024-03-07T02:58:50;5.50;89.60
65046;DHT22;54657;52.022;5.534;2024-03-07T03:01:17;5.50;89.50
65046;DHT22;54657;52.022;5.534;2024-03-07T03:03:43;5.50;90.00
65046;DHT22;54657;52.022;5.534;2024-03-07T03:06:09;5.40;89.40
65046;DHT22;54657;52.022;5.534;2024-03-07T03:08:35;5.30;89.80
65046;DHT22;54657;52.022;5.534;2024-03-07T03:11:01;5.10;90.20
65046;DHT22;54657;52.022;5.534;2024-03-07T03:13:27;5.10;90.30
65046;DHT22;54657;52.022;5.534;2024-03-07T03:15:56;5.20;90.30
65046;DHT22;54657;52.022;5.534;2024-03-07T03:18:24;5.20;90.30
65046;DHT22;54657;52.022;5.534;2024-03-07T03:20:50;5.20;90.30
65046;DHT22;54657;52.022;5.534;2024-03-07T03:23:18;5.10;90.30
65046;DHT22;54657;52.022;5.534;2024-03-07T03:25:44;5.10;90.30
65046;DHT22;54657;52.022;5.534;2024-03-07T03:28:10;5.20;90.30
65046;DHT22;54657;52.022;5.534;2024-03-07T03:30:40;5.20;90.20
65046;DHT22;54657;52.022;5.534;2024-03-07T03:33:06;5.20;90.10
65046;DHT22;54657;52.022;5.534;2024-03-07T03:35:35;5.20;90.10
65046;DHT22;54657;52.022;5.534;2024-03-07T03:38:01;5.10;90.10
65046;DHT22;54657;52.022;5.534;2024-03-07T03:40:27;5.10;90.20
65046;DHT22;54657;52.022;5.534;2024-03-07T03:42:52;5.10;90.20
65046;DHT22;54657;52.022;5.534;2024-03-07T03:45:18;4.90;90.20
65046;DHT22;54657;52.022;5.534;2024-03-07T03:47:44;4.90;90.20
65046;DHT22;54657;52.022;5.534;2024-03-07T03:50:11;4.90;90.30
65046;DHT22;54657;52.022;5.534;2024-03-07T03:52:37;4.80;90.40
65046;DHT22;54657;52.022;5.534;2024-03-07T03:55:06;4.80;90.40
65046;DHT22;54657;52.022;5.534;2024-03-07T03:57:33;4.80;90.40
65046;DHT22;54657;52.022;5.534;2024-03-07T03:59:59;4.80;90.40
65046;DHT22;54657;52.022;5.534;2024-03-07T04:02:25;4.80;90.40
65046;DHT22;54657;52.022;5.534;2024-03-07T04:04:52;4.80;90.30
65046;DHT22;54657;52.022;5.534;2024-03-07T04:07:21;4.90;90.30
65046;DHT22;54657;52.022;5.534;2024-03-07T04:09:46;4.90;90.20
65046;DHT22;54657;52.022;5.534;2024-03-07T04:12:13;4.90;90.20
65046;DHT22;54657;52.022;5.534;2024-03-07T04:14:42;4.80;90.50
65046;DHT22;54657;52.022;5.534;2024-03-07T04:17:09;4.80;90.30
65046;DHT22;54657;52.022;5.534;2024-03-07T04:19:40;4.80;90.30
65046;DHT22;54657;52.022;5.534;2024-03-07T04:22:06;4.70;90.40
65046;DHT22;54657;52.022;5.534;2024-03-07T04:24:33;4.70;90.40
65046;DHT22;54657;52.022;5.534;2024-03-07T04:27:00;4.60;90.40
65046;DHT22;54657;52.022;5.534;2024-03-07T04:29:26;4.60;90.40
65046;DHT22;54657;52.022;5.534;2024-03-07T04:31:52;4.70;90.40
65046;DHT22;54657;52.022;5.534;2024-03-07T04:34:18;4.70;90.30
65046;DHT22;54657;52.022;5.534;2024-03-07T04:36:44;4.70;90.30
65046;DHT22;54657;52.022;5.534;2024-03-07T04:39:10;4.70;90.30
65046;DHT22;54657;52.022;5.534;2024-03-07T04:41:51;4.60;90.20
65046;DHT22;54657;52.022;5.534;2024-03-07T04:44:18;4.60;90.30
65046;DHT22;54657;52.022;5.534;2024-03-07T04:46:44;4.60;90.20
65046;DHT22;54657;52.022;5.534;2024-03-07T04:49:10;4.60;90.20
65046;DHT22;54657;52.022;5.534;2024-03-07T04:51:35;4.60;90.10
65046;DHT22;54657;52.022;5.534;2024-03-07T04:54:01;4.60;90.10
65046;DHT22;54657;52.022;5.534;2024-03-07T04:56:26;4.50;90.10
65046;DHT22;54657;52.022;5.534;2024-03-07T04:58:52;4.60;90.10
65046;DHT22;54657;52.022;5.534;2024-03-07T05:01:20;4.50;90.10
65046;DHT22;54657;52.022;5.534;2024-03-07T05:03:45;4.50;90.00
65046;DHT22;54657;52.022;5.534;2024-03-07T05:06:11;4.60;90.00
65046;DHT22;54657;52.022;5.534;2024-03-07T05:08:36;4.50;90.00
65046;DHT22;54657;52.022;5.534;2024-03-07T05:11:02;4.50;90.00
65046;DHT22;54657;52.022;5.534;2024-03-07T05:13:29;4.40;90.10
65046;DHT22;54657;52.022;5.534;2024-03-07T05:15:56;4.40;90.10
65046;DHT22;54657;52.022;5.534;2024-03-07T05:18:22;4.40;90.10
65046;DHT22;54657;52.022;5.534;2024-03-07T05:20:48;4.40;90.10
65046;DHT22;54657;52.022;5.534;2024-03-07T05:23:14;4.30;90.40
65046;DHT22;54657;52.022;5.534;2024-03-07T05:25:40;4.30;90.20
65046;DHT22;54657;52.022;5.534;2024-03-07T05:28:05;4.20;90.20
65046;DHT22;54657;52.022;5.534;2024-03-07T05:30:31;4.20;90.30
65046;DHT22;54657;52.022;5.534;2024-03-07T05:32:58;4.20;90.30
65046;DHT22;54657;52.022;5.534;2024-03-07T05:35:26;4.20;90.20
65046;DHT22;54657;52.022;5.534;2024-03-07T05:37:54;4.20;90.30
65046;DHT22;54657;52.022;5.534;2024-03-07T05:40:22;4.20;90.30
65046;DHT22;54657;52.022;5.534;2024-03-07T05:42:47;4.20;90.20
65046;DHT22;54657;52.022;5.534;2024-03-07T05:45:13;4.20;90.30
65046;DHT22;54657;52.022;5.534;2024-03-07T05:47:40;4.20;90.20
65046;DHT22;54657;52.022;5.534;2024-03-07T05:50:06;4.30;90.20
65046;DHT22;54657;52.022;5.534;2024-03-07T05:52:32;4.30;90.10
65046;DHT22;54657;52.022;5.534;2024-03-07T05:54:58;4.30;90.10
65046;DHT22;54657;52.022;5.534;2024-03-07T05:57:24;4.20;90.10
65046;DHT22;54657;52.022;5.534;2024-03-07T05:59:50;4.20;90.10
65046;DHT22;54657;52.022;5.534;2024-03-07T06:02:16;4.20;90.10
65046;DHT22;54657;52.022;5.534;2024-03-07T06:04:42;4.10;90.10
65046;DHT22;54657;52.022;5.534;2024-03-07T06:07:08;4.10;90.20
65046;DHT22;54657;52.022;5.534;2024-03-07T06:09:36;4.20;90.20
65046;DHT22;54657;52.022;5.534;2024-03-07T06:12:02;4.20;90.10
65046;DHT22;54657;52.022;5.534;2024-03-07T06:14:29;4.20;90.10
65046;DHT22;54657;52.022;5.534;2024-03-07T06:16:55;4.20;90.10
65046;DHT22;54657;52.022;5.534;2024-03-07T06:19:23;4.20;90.10
65046;DHT22;54657;52.022;5.534;2024-03-07T06:21:49;4.20;90.10
65046;DHT22;54657;52.022;5.534;2024-03-07T06:24:15;4.20;90.00
65046;DHT22;54657;52.022;5.534;2024-03-07T06:26:42;4.30;90.00
65046;DHT22;54657;52.022;5.534;2024-03-07T06:29:29;4.20;90.00
65046;DHT22;54657;52.022;5.534;2024-03-07T06:31:54;4.30;90.00
65046;DHT22;54657;52.022;5.534;2024-03-07T06:34:20;4.20;89.90
65046;DHT22;54657;52.022;5.534;2024-03-07T06:36:46;4.30;90.00
65046;DHT22;54657;52.022;5.534;2024-03-07T06:39:11;4.20;90.00
65046;DHT22;54657;52.022;5.534;2024-03-07T06:41:37;4.30;90.00
65046;DHT22;54657;52.022;5.534;2024-03-07T06:44:03;4.30;90.00
65046;DHT22;54657;52.022;5.534;2024-03-07T06:46:29;4.30;90.00
65046;DHT22;54657;52.022;5.534;2024-03-07T06:48:55;4.30;90.30
65046;DHT22;54657;52.022;5.534;2024-03-07T06:51:23;4.40;90.30
65046;DHT22;54657;52.022;5.534;2024-03-07T06:53:50;4.40;90.30
65046;DHT22;54657;52.022;5.534;2024-03-07T06:56:16;4.50;90.60
65046;DHT22;54657;52.022;5.534;2024-03-07T06:58:43;4.60;90.50
65046;DHT22;54657;52.022;5.534;2024-03-07T07:01:10;4.60;90.40
65046;DHT22;54657;52.022;5.534;2024-03-07T07:03:37;4.70;90.90
65046;DHT22;54657;52.022;5.534;2024-03-07T07:06:03;4.70;90.70
65046;DHT22;54657;52.022;5.534;2024-03-07T07:08:31;4.70;91.00
65046;DHT22;54657;52.022;5.534;2024-03-07T07:10:57;4.80;90.90
65046;DHT22;54657;52.022;5.534;2024-03-07T07:13:23;4.80;90.80
65046;DHT22;54657;52.022;5.534;2024-03-07T07:15:49;4.80;90.90
65046;DHT22;54657;52.022;5.534;2024-03-07T07:18:15;4.90;91.40
65046;DHT22;54657;52.022;5.534;2024-03-07T07:20:40;4.90;91.30
65046;DHT22;54657;52.022;5.534;2024-03-07T07:23:06;5.00;90.90
65046;DHT22;54657;52.022;5.534;2024-03-07T07:25:32;5.00;91.50
65046;DHT22;54657;52.022;5.534;2024-03-07T07:27:58;5.00;91.00
65046;DHT22;54657;52.022;5.534;2024-03-07T07:30:24;5.00;91.50
65046;DHT22;54657;52.022;5.534;2024-03-07T07:32:51;5.10;91.10
65046;DHT22;54657;52.022;5.534;2024-03-07T07:35:17;5.20;91.30
65046;DHT22;54657;52.022;5.534;2024-03-07T07:37:44;5.20;91.00
65046;DHT22;54657;52.022;5.534;2024-03-07T07:40:12;5.30;91.30
65046;DHT22;54657;52.022;5.534;2024-03-07T07:42:40;5.40;91.30
65046;DHT22;54657;52.022;5.534;2024-03-07T07:45:08;5.40;91.20
65046;DHT22;54657;52.022;5.534;2024-03-07T07:47:40;5.50;90.80
65046;DHT22;54657;52.022;5.534;2024-03-07T07:50:18;5.50;91.20
65046;DHT22;54657;52.022;5.534;2024-03-07T07:52:46;5.60;91.10
65046;DHT22;54657;52.022;5.534;2024-03-07T07:55:17;5.60;91.20
65046;DHT22;54657;52.022;5.534;2024-03-07T07:57:50;5.60;90.90
65046;DHT22;54657;52.022;5.534;2024-03-07T08:00:20;5.80;91.00
65046;DHT22;54657;52.022;5.534;2024-03-07T08:02:56;5.80;90.90
65046;DHT22;54657;52.022;5.534;2024-03-07T08:05:27;5.90;91.00
65046;DHT22;54657;52.022;5.534;2024-03-07T08:07:55;5.90;90.90
65046;DHT22;54657;52.022;5.534;2024-03-07T08:10:22;6.00;90.70
65046;DHT22;54657;52.022;5.534;2024-03-07T08:12:49;6.10;90.60
65046;DHT22;54657;52.022;5.534;2024-03-07T08:15:15;6.00;91.00
65046;DHT22;54657;52.022;5.534;2024-03-07T08:17:46;6.10;90.70
65046;DHT22;54657;52.022;5.534;2024-03-07T08:20:16;6.10;90.70
65046;DHT22;54657;52.022;5.534;2024-03-07T08:22:43;6.10;91.00
65046;DHT22;54657;52.022;5.534;2024-03-07T08:25:20;6.10;90.70
65046;DHT22;54657;52.022;5.534;2024-03-07T08:27:48;6.20;90.80
65046;DHT22;54657;52.022;5.534;2024-03-07T08:30:14;6.30;90.50
65046;DHT22;54657;52.022;5.534;2024-03-07T08:32:48;6.40;90.40
65046;DHT22;54657;52.022;5.534;2024-03-07T08:35:14;6.40;90.40
65046;DHT22;54657;52.022;5.534;2024-03-07T08:37:42;6.40;90.30
65046;DHT22;54657;52.022;5.534;2024-03-07T08:40:09;6.50;90.30
65046;DHT22;54657;52.022;5.534;2024-03-07T08:42:45;6.60;90.20
65046;DHT22;54657;52.022;5.534;2024-03-07T08:45:11;6.60;90.40
65046;DHT22;54657;52.022;5.534;2024-03-07T08:47:37;6.70;90.10
65046;DHT22;54657;52.022;5.534;2024-03-07T08:50:04;6.70;89.90
65046;DHT22;54657;52.022;5.534;2024-03-07T08:52:34;6.80;90.00
65046;DHT22;54657;52.022;5.534;2024-03-07T08:55:02;6.90;89.60
65046;DHT22;54657;52.022;5.534;2024-03-07T08:57:28;7.00;89.60
65046;DHT22;54657;52.022;5.534;2024-03-07T08:59:54;7.00;89.20
65046;DHT22;54657;52.022;5.534;2024-03-07T09:02:19;7.00;89.30
65046;DHT22;54657;52.022;5.534;2024-03-07T09:04:45;7.10;88.90
65046;DHT22;54657;52.022;5.534;2024-03-07T09:07:11;7.10;88.70
65046;DHT22;54657;52.022;5.534;2024-03-07T09:09:37;7.20;88.70
65046;DHT22;54657;52.022;5.534;2024-03-07T09:12:02;7.20;88.80
65046;DHT22;54657;52.022;5.534;2024-03-07T09:14:28;7.30;88.40
65046;DHT22;54657;52.022;5.534;2024-03-07T09:16:54;7.40;88.40
65046;DHT22;54657;52.022;5.534;2024-03-07T09:19:20;7.40;88.20
65046;DHT22;54657;52.022;5.534;2024-03-07T09:21:52;7.50;88.10
65046;DHT22;54657;52.022;5.534;2024-03-07T09:24:18;7.60;88.00
65046;DHT22;54657;52.022;5.534;2024-03-07T09:26:49;7.60;86.80
65046;DHT22;54657;52.022;5.534;2024-03-07T09:29:16;7.70;87.80
65046;DHT22;54657;52.022;5.534;2024-03-07T09:31:43;7.70;87.30
65046;DHT22;54657;52.022;5.534;2024-03-07T09:34:08;7.80;87.60
65046;DHT22;54657;52.022;5.534;2024-03-07T09:36:34;7.80;88.00
65046;DHT22;54657;52.022;5.534;2024-03-07T09:38:59;7.90;87.30
65046;DHT22;54657;52.022;5.534;2024-03-07T09:41:26;7.90;87.60
65046;DHT22;54657;52.022;5.534;2024-03-07T09:43:52;8.10;87.00
65046;DHT22;54657;52.022;5.534;2024-03-07T09:46:21;8.10;86.40
65046;DHT22;54657;52.022;5.534;2024-03-07T09:48:47;8.10;85.90
65046;DHT22;54657;52.022;5.534;2024-03-07T09:51:13;8.10;85.50
65046;DHT22;54657;52.022;5.534;2024-03-07T09:53:43;8.20;85.90
65046;DHT22;54657;52.022;5.534;2024-03-07T09:56:11;8.30;86.00
65046;DHT22;54657;52.022;5.534;2024-03-07T09:58:39;8.40;85.70
65046;DHT22;54657;52.022;5.534;2024-03-07T10:01:06;8.50;85.60
65046;DHT22;54657;52.022;5.534;2024-03-07T10:03:35;8.60;85.30
65046;DHT22;54657;52.022;5.534;2024-03-07T10:06:02;8.60;85.30
65046;DHT22;54657;52.022;5.534;2024-03-07T10:08:29;8.70;84.90
65046;DHT22;54657;52.022;5.534;2024-03-07T10:10:56;8.70;83.80
65046;DHT22;54657;52.022;5.534;2024-03-07T10:13:22;8.70;84.70
65046;DHT22;54657;52.022;5.534;2024-03-07T10:15:48;8.80;84.70
65046;DHT22;54657;52.022;5.534;2024-03-07T10:18:15;9.00;84.20
65046;DHT22;54657;52.022;5.534;2024-03-07T10:20:42;9.00;83.60
65046;DHT22;54657;52.022;5.534;2024-03-07T10:23:08;9.10;83.50
65046;DHT22;54657;52.022;5.534;2024-03-07T10:25:34;9.10;83.60
65046;DHT22;54657;52.022;5.534;2024-03-07T10:28:01;9.10;81.90
65046;DHT22;54657;52.022;5.534;2024-03-07T10:30:29;9.10;82.10
65046;DHT22;54657;52.022;5.534;2024-03-07T10:32:56;9.20;81.20
65046;DHT22;54657;52.022;5.534;2024-03-07T10:35:23;9.30;82.10
65046;DHT22;54657;52.022;5.534;2024-03-07T10:37:53;9.30;81.60
65046;DHT22;54657;52.022;5.534;2024-03-07T10:40:20;9.40;82.10
65046;DHT22;54657;52.022;5.534;2024-03-07T10:42:48;9.50;81.70
65046;DHT22;54657;52.022;5.534;2024-03-07T10:45:18;9.60;81.60
65046;DHT22;54657;52.022;5.534;2024-03-07T10:47:49;9.60;81.00
65046;DHT22;54657;52.022;5.534;2024-03-07T10:53:02;9.70;79.20
65046;DHT22;54657;52.022;5.534;2024-03-07T10:55:47;9.70;80.30
65046;DHT22;54657;52.022;5.534;2024-03-07T10:58:32;9.80;79.60
65046;DHT22;54657;52.022;5.534;2024-03-07T11:01:02;9.80;78.90
65046;DHT22;54657;52.022;5.534;2024-03-07T11:03:31;9.80;79.70
65046;DHT22;54657;52.022;5.534;2024-03-07T11:05:59;9.90;80.20
65046;DHT22;54657;52.022;5.534;2024-03-07T11:08:26;10.00;79.10
65046;DHT22;54657;52.022;5.534;2024-03-07T11:10:52;10.10;79.90
65046;DHT22;54657;52.022;5.534;2024-03-07T11:13:18;10.10;78.90
65046;DHT22;54657;52.022;5.534;2024-03-07T11:15:46;10.20;79.50
65046;DHT22;54657;52.022;5.534;2024-03-07T11:18:13;10.30;79.10
65046;DHT22;54657;52.022;5.534;2024-03-07T11:20:40;10.30;79.50
65046;DHT22;54657;52.022;5.534;2024-03-07T11:23:27;10.20;79.20
65046;DHT22;54657;52.022;5.534;2024-03-07T11:26:05;10.20;77.80
65046;DHT22;54657;52.022;5.534;2024-03-07T11:28:33;10.20;79.50
65046;DHT22;54657;52.022;5.534;2024-03-07T11:31:10;10.20;79.20
65046;DHT22;54657;52.022;5.534;2024-03-07T11:33:38;10.30;78.90
65046;DHT22;54657;52.022;5.534;2024-03-07T11:36:07;10.30;78.90
65046;DHT22;54657;52.022;5.534;2024-03-07T11:38:33;10.20;78.70
65046;DHT22;54657;52.022;5.534;2024-03-07T11:41:00;10.20;78.60
65046;DHT22;54657;52.022;5.534;2024-03-07T11:43:33;10.20;78.90
65046;DHT22;54657;52.022;5.534;2024-03-07T11:45:59;10.20;78.90
65046;DHT22;54657;52.022;5.534;2024-03-07T11:48:25;10.30;78.90
65046;DHT22;54657;52.022;5.534;2024-03-07T11:50:50;10.30;78.70
65046;DHT22;54657;52.022;5.534;2024-03-07T11:53:16;10.40;78.80
65046;DHT22;54657;52.022;5.534;2024-03-07T11:55:43;10.40;78.80
65046;DHT22;54657;52.022;5.534;2024-03-07T11:58:13;10.50;78.50
65046;DHT22;54657;52.022;5.534;2024-03-07T12:00:40;10.50;78.40
65046;DHT22;54657;52.022;5.534;2024-03-07T12:03:08;10.50;77.80
65046;DHT22;54657;52.022;5.534;2024-03-07T12:05:34;10.50;77.80
65046;DHT22;54657;52.022;5.534;2024-03-07T12:08:00;10.60;78.30
65046;DHT22;54657;52.022;5.534;2024-03-07T12:10:26;10.70;78.10
65046;DHT22;54657;52.022;5.534;2024-03-07T12:12:51;10.70;77.90
65046;DHT22;54657;52.022;5.534;2024-03-07T12:15:17;10.70;77.50
65046;DHT22;54657;52.022;5.534;2024-03-07T12:17:46;10.60;77.50
65046;DHT22;54657;52.022;5.534;2024-03-07T12:20:15;10.60;77.50
65046;DHT22;54657;52.022;5.534;2024-03-07T12:22:56;10.50;76.10
65046;DHT22;54657;52.022;5.534;2024-03-07T12:25:22;10.50;76.60
65046;DHT22;54657;52.022;5.534;2024-03-07T12:28:10;10.50;77.40
65046;DHT22;54657;52.022;5.534;2024-03-07T12:30:53;10.60;77.20
65046;DHT22;54657;52.022;5.534;2024-03-07T12:33:20;10.60;75.80
65046;DHT22;54657;52.022;5.534;2024-03-07T12:35:50;10.50;76.50
65046;DHT22;54657;52.022;5.534;2024-03-07T12:38:18;10.50;75.60
65046;DHT22;54657;52.022;5.534;2024-03-07T12:40:45;10.50;76.60
65046;DHT22;54657;52.022;5.534;2024-03-07T12:43:20;10.60;77.10
65046;DHT22;54657;52.022;5.534;2024-03-07T12:45:53;10.60;74.80
65046;DHT22;54657;52.022;5.534;2024-03-07T12:48:23;10.70;76.90
65046;DHT22;54657;52.022;5.534;2024-03-07T12:50:50;10.70;76.90
65046;DHT22;54657;52.022;5.534;2024-03-07T12:53:22;10.70;76.90
65046;DHT22;54657;52.022;5.534;2024-03-07T12:55:49;10.80;76.80
65046;DHT22;54657;52.022;5.534;2024-03-07T12:58:16;10.70;75.90
65046;DHT22;54657;52.022;5.534;2024-03-07T13:00:42;10.70;76.20
65046;DHT22;54657;52.022;5.534;2024-03-07T13:03:09;10.60;76.40
65046;DHT22;54657;52.022;5.534;2024-03-07T13:05:36;10.50;76.20
65046;DHT22;54657;52.022;5.534;2024-03-07T13:08:06;10.50;76.10
65046;DHT22;54657;52.022;5.534;2024-03-07T13:10:37;10.50;77.00
65046;DHT22;54657;52.022;5.534;2024-03-07T13:13:03;10.50;76.40
65046;DHT22;54657;52.022;5.534;2024-03-07T13:15:30;10.60;76.80
65046;DHT22;54657;52.022;5.534;2024-03-07T13:17:55;10.50;76.70
65046;DHT22;54657;52.022;5.534;2024-03-07T13:20:21;10.50;76.60
65046;DHT22;54657;52.022;5.534;2024-03-07T13:22:51;10.60;77.20
65046;DHT22;54657;52.022;5.534;2024-03-07T13:25:20;10.60;76.60
65046;DHT22;54657;52.022;5.534;2024-03-07T13:28:13;10.50;76.40
65046;DHT22;54657;52.022;5.534;2024-03-07T13:30:42;10.50;75.00
65046;DHT22;54657;52.022;5.534;2024-03-07T13:33:09;10.40;77.10
65046;DHT22;54657;52.022;5.534;2024-03-07T13:35:39;10.40;77.20
65046;DHT22;54657;52.022;5.534;2024-03-07T13:38:05;10.40;77.20
65046;DHT22;54657;52.022;5.534;2024-03-07T13:40:32;10.50;77.20
65046;DHT22;54657;52.022;5.534;2024-03-07T13:43:00;10.50;77.50
65046;DHT22;54657;52.022;5.534;2024-03-07T13:45:28;10.40;77.40
65046;DHT22;54657;52.022;5.534;2024-03-07T13:47:56;10.40;77.60
65046;DHT22;54657;52.022;5.534;2024-03-07T13:50:25;10.30;77.50
65046;DHT22;54657;52.022;5.534;2024-03-07T13:52:52;10.30;77.80
65046;DHT22;54657;52.022;5.534;2024-03-07T14:07:27;10.20;78.60
65046;DHT22;54657;52.022;5.534;2024-03-07T14:30:54;9.90;79.50
65046;DHT22;54657;52.022;5.534;2024-03-07T14:33:49;9.80;79.70
65046;DHT22;54657;52.022;5.534;2024-03-07T14:36:16;9.90;79.70
65046;DHT22;54657;52.022;5.534;2024-03-07T14:41:18;9.80;79.50
65046;DHT22;54657;52.022;5.534;2024-03-07T14:43:44;9.80;79.60
65046;DHT22;54657;52.022;5.534;2024-03-07T14:46:11;9.70;79.70
65046;DHT22;54657;52.022;5.534;2024-03-07T14:48:39;9.70;79.80
65046;DHT22;54657;52.022;5.534;2024-03-07T14:51:07;9.70;79.90
65046;DHT22;54657;52.022;5.534;2024-03-07T14:53:33;9.60;80.60
65046;DHT22;54657;52.022;5.534;2024-03-07T14:55:59;9.60;80.30
65046;DHT22;54657;52.022;5.534;2024-03-07T14:58:25;9.50;80.20
65046;DHT22;54657;52.022;5.534;2024-03-07T15:00:50;9.60;80.40
65046;DHT22;54657;52.022;5.534;2024-03-07T15:03:18;9.60;80.30
65046;DHT22;54657;52.022;5.534;2024-03-07T15:05:44;9.70;80.10
65046;DHT22;54657;52.022;5.534;2024-03-07T15:08:10;9.80;80.00
65046;DHT22;54657;52.022;5.534;2024-03-07T15:10:38;9.90;79.80
65046;DHT22;54657;52.022;5.534;2024-03-07T15:13:06;10.00;79.70
65046;DHT22;54657;52.022;5.534;2024-03-07T15:15:33;10.00;79.40
65046;DHT22;54657;52.022;5.534;2024-03-07T15:17:59;10.00;79.30
65046;DHT22;54657;52.022;5.534;2024-03-07T15:20:26;10.00;79.30
65046;DHT22;54657;52.022;5.534;2024-03-07T15:22:55;10.00;79.10
65046;DHT22;54657;52.022;5.534;2024-03-07T15:25:22;10.00;79.50
65046;DHT22;54657;52.022;5.534;2024-03-07T15:27:49;10.00;79.50
65046;DHT22;54657;52.022;5.534;2024-03-07T15:30:19;10.00;79.50
65046;DHT22;54657;52.022;5.534;2024-03-07T15:32:46;10.00;79.30
65046;DHT22;54657;52.022;5.534;2024-03-07T15:35:13;10.00;79.70
65046;DHT22;54657;52.022;5.534;2024-03-07T15:37:47;10.00;79.50
65046;DHT22;54657;52.022;5.534;2024-03-07T15:40:14;10.00;79.50
65046;DHT22;54657;52.022;5.534;2024-03-07T15:45:08;10.00;79.30
65046;DHT22;54657;52.022;5.534;2024-03-07T15:47:46;9.90;79.40
65046;DHT22;54657;52.022;5.534;2024-03-07T15:50:12;9.90;79.60
65046;DHT22;54657;52.022;5.534;2024-03-07T15:52:38;9.70;79.60
65046;DHT22;54657;52.022;5.534;2024-03-07T15:55:08;9.60;80.30
65046;DHT22;54657;52.022;5.534;2024-03-07T15:57:47;9.60;80.60
65046;DHT22;54657;52.022;5.534;2024-03-07T16:00:17;9.50;80.60
65046;DHT22;54657;52.022;5.534;2024-03-07T16:02:53;9.60;80.70
65046;DHT22;54657;52.022;5.534;2024-03-07T16:05:25;9.60;80.60
65046;DHT22;54657;52.022;5.534;2024-03-07T16:07:52;9.60;80.60
65046;DHT22;54657;52.022;5.534;2024-03-07T16:10:22;9.60;80.70
65046;DHT22;54657;52.022;5.534;2024-03-07T16:12:49;9.60;80.60
65046;DHT22;54657;52.022;5.534;2024-03-07T16:15:15;9.60;80.50
65046;DHT22;54657;52.022;5.534;2024-03-07T16:17:40;9.60;80.60
65046;DHT22;54657;52.022;5.534;2024-03-07T16:20:07;9.50;80.50
65046;DHT22;54657;52.022;5.534;2024-03-07T16:22:39;9.50;80.60
65046;DHT22;54657;52.022;5.534;2024-03-07T16:25:05;9.50;80.60
65046;DHT22;54657;52.022;5.534;2024-03-07T16:27:32;9.60;80.70